sensor_id;sensor_type;location;lat;lon;timestamp;pressure;altitude;pressure_sealevel;temperature;humidity
21817;BME280;13247;47.504;7.382;2023-02-14T00:01:55;99096.34;;;1.31;100.00
21817;BME280;13247;47.504;7.382;2023-02-14T00:04:40;99090.34;;;1.32;100.00
21817;BME280;13247;47.504;7.382;2023-02-14T00:07:27;99088.72;;;1.35;100.00
21817;BME280;13247;47.504;7.382;2023-02-14T00:10:12;99081.41;;;1.22;100.00
21817;BME280;13247;47.504;7.382;2023-02-14T00:12:56;99087.25;;;1.17;100.00
21817;BME280;13247;47.504;7.382;2023-02-14T00:15:41;99084.19;;;1.28;100.00
21817;BME280;13247;47.504;7.382;2023-02-14T00:18:25;99080.16;;;1.11;100.00
21817;BME280;13247;47.504;7.382;2023-02-14T00:21:36;99075.41;;;0.98;100.00
21817;BME280;13247;47.504;7.382;2023-02-14T00:24:23;99078.75;;;0.96;100.00
21817;BME280;13247;47.504;7.382;2023-02-14T00:27:08;99078.22;;;0.80;100.00
21817;BME280;13247;47.504;7.382;2023-02-14T00:29:52;99073.31;;;0.87;100.00
21817;BME280;13247;47.504;7.382;2023-02-14T00:32:39;99076.13;;;0.94;100.00
21817;BME280;13247;47.504;7.382;2023-02-14T00:35:24;99082.44;;;1.02;100.00
21817;BME280;13247;47.504;7.382;2023-02-14T00:38:08;99076.75;;;1.12;100.00
21817;BME280;13247;47.504;7.382;2023-02-14T00:40:53;99077.75;;;0.91;100.00
21817;BME280;13247;47.504;7.382;2023-02-14T00:43:37;99083.22;;;1.00;100.00
21817;BME280;13247;47.504;7.382;2023-02-14T00:46:23;99078.69;;;0.93;100.00
21817;BME280;13247;47.504;7.382;2023-02-14T00:49:08;99081.47;;;0.99;100.00
21817;BME280;13247;47.504;7.382;2023-02-14T00:51:52;99083.22;;;1.00;100.00
21817;BME280;13247;47.504;7.382;2023-02-14T00:54:37;99086.22;;;1.12;100.00
21817;BME280;13247;47.504;7.382;2023-02-14T00:57:21;99086.09;;;1.09;100.00
21817;BME280;13247;47.504;7.382;2023-02-14T01:00:06;99089.56;;;1.09;100.00
21817;BME280;13247;47.504;7.382;2023-02-14T01:02:51;99079.09;;;1.05;100.00
21817;BME280;13247;47.504;7.382;2023-02-14T01:05:36;99081.41;;;0.97;100.00
21817;BME280;13247;47.504;7.382;2023-02-14T01:08:20;99079.50;;;0.92;100.00
21817;BME280;13247;47.504;7.382;2023-02-14T01:11:11;99080.53;;;0.97;100.00
21817;BME280;13247;47.504;7.382;2023-02-14T01:13:57;99075.78;;;0.84;100.00
21817;BME280;13247;47.504;7.382;2023-02-14T01:16:41;99074.69;;;0.77;100.00
21817;BME280;13247;47.504;7.382;2023-02-14T01:19:26;99079.41;;;0.65;100.00
21817;BME280;13247;47.504;7.382;2023-02-14T01:22:10;99069.16;;;0.66;100.00
21817;BME280;13247;47.504;7.382;2023-02-14T01:24:55;99071.03;;;0.72;100.00
21817;BME280;13247;47.504;7.382;2023-02-14T01:27:39;99073.97;;;0.81;100.00
21817;BME280;13247;47.504;7.382;2023-02-14T01:30:24;99070.50;;;0.80;100.00
21817;BME280;13247;47.504;7.382;2023-02-14T01:33:09;99074.38;;;0.93;100.00
21817;BME280;13247;47.504;7.382;2023-02-14T01:35:53;99066.63;;;0.93;100.00
21817;BME280;13247;47.504;7.382;2023-02-14T01:38:38;99068.09;;;0.61;100.00
21817;BME280;13247;47.504;7.382;2023-02-14T01:41:23;99071.69;;;0.41;100.00
21817;BME280;13247;47.504;7.382;2023-02-14T01:47:05;99062.88;;;0.36;100.00
21817;BME280;13247;47.504;7.382;2023-02-14T01:49:55;99068.00;;;0.35;100.00
21817;BME280;13247;47.504;7.382;2023-02-14T01:52:50;99066.00;;;0.28;100.00
21817;BME280;13247;47.504;7.382;2023-02-14T01:55:40;99064.91;;;0.21;100.00
21817;BME280;13247;47.504;7.382;2023-02-14T01:58:27;99066.81;;;0.25;100.00
21817;BME280;13247;47.504;7.382;2023-02-14T02:01:15;99065.25;;;0.30;100.00
21817;BME280;13247;47.504;7.382;2023-02-14T02:04:22;99065.28;;;0.32;100.00
21817;BME280;13247;47.504;7.382;2023-02-14T02:07:15;99059.31;;;0.33;100.00
21817;BME280;13247;47.504;7.382;2023-02-14T02:10:04;99055.13;;;0.36;100.00
21817;BME280;13247;47.504;7.382;2023-02-14T02:12:51;99060.97;;;0.31;100.00
21817;BME280;13247;47.504;7.382;2023-02-14T02:16:01;99055.56;;;0.23;100.00
21817;BME280;13247;47.504;7.382;2023-02-14T02:32:33;99051.06;;;-0.05;100.00
21817;BME280;13247;47.504;7.382;2023-02-14T02:42:26;99045.03;;;-0.05;100.00
21817;BME280;13247;47.504;7.382;2023-02-14T02:44:49;99040.94;;;-0.22;100.00
21817;BME280;13247;47.504;7.382;2023-02-14T02:47:43;99048.78;;;-0.19;100.00
21817;BME280;13247;47.504;7.382;2023-02-14T02:50:42;99052.88;;;-0.24;100.00
21817;BME280;13247;47.504;7.382;2023-02-14T02:54:08;99050.19;;;-0.27;100.00
21817;BME280;13247;47.504;7.382;2023-02-14T02:56:59;99050.88;;;-0.31;100.00
21817;BME280;13247;47.504;7.382;2023-02-14T02:59:46;99047.38;;;-0.33;100.00
21817;BME280;13247;47.504;7.382;2023-02-14T03:02:37;99040.94;;;-0.22;100.00
21817;BME280;13247;47.504;7.382;2023-02-14T03:05:44;99042.81;;;-0.18;100.00
21817;BME280;13247;47.504;7.382;2023-02-14T03:08:28;99043.91;;;-0.12;100.00
21817;BME280;13247;47.504;7.382;2023-02-14T03:11:13;99044.63;;;-0.16;100.00
21817;BME280;13247;47.504;7.382;2023-02-14T03:19:59;99041.59;;;-0.70;100.00
21817;BME280;13247;47.504;7.382;2023-02-14T03:23:20;99045.13;;;-0.46;100.00
21817;BME280;13247;47.504;7.382;2023-02-14T03:35:10;99033.47;;;-0.15;100.00
21817;BME280;13247;47.504;7.382;2023-02-14T03:38:14;99040.75;;;-0.27;100.00
21817;BME280;13247;47.504;7.382;2023-02-14T03:41:10;99040.75;;;-0.27;100.00
21817;BME280;13247;47.504;7.382;2023-02-14T03:44:01;99042.63;;;-0.23;100.00
21817;BME280;13247;47.504;7.382;2023-02-14T03:47:01;99044.31;;;-0.23;100.00
21817;BME280;13247;47.504;7.382;2023-02-14T03:49:55;99041.69;;;-0.25;100.00
21817;BME280;13247;47.504;7.382;2023-02-14T03:52:41;99048.47;;;-0.27;100.00
21817;BME280;13247;47.504;7.382;2023-02-14T03:55:37;99054.88;;;-0.39;100.00
21817;BME280;13247;47.504;7.382;2023-02-14T03:58:31;99053.63;;;-0.27;100.00
21817;BME280;13247;47.504;7.382;2023-02-14T04:04:07;99050.75;;;-0.56;100.00
21817;BME280;13247;47.504;7.382;2023-02-14T04:06:52;99049.44;;;-0.67;100.00
21817;BME280;13247;47.504;7.382;2023-02-14T04:09:37;99050.50;;;-0.62;100.00
21817;BME280;13247;47.504;7.382;2023-02-14T04:12:22;99046.81;;;-0.69;100.00
21817;BME280;13247;47.504;7.382;2023-02-14T04:15:08;99054.16;;;-0.57;100.00
21817;BME280;13247;47.504;7.382;2023-02-14T04:17:53;99046.63;;;-0.53;100.00
21817;BME280;13247;47.504;7.382;2023-02-14T04:20:56;99042.41;;;-0.71;100.00
21817;BME280;13247;47.504;7.382;2023-02-14T04:23:41;99050.53;;;-0.83;100.00
21817;BME280;13247;47.504;7.382;2023-02-14T04:26:25;99050.41;;;-1.27;100.00
21817;BME280;13247;47.504;7.382;2023-02-14T04:29:10;99053.28;;;-1.20;100.00
21817;BME280;13247;47.504;7.382;2023-02-14T04:31:54;99045.81;;;-1.14;100.00
21817;BME280;13247;47.504;7.382;2023-02-14T04:34:39;99049.72;;;-1.03;100.00
21817;BME280;13247;47.504;7.382;2023-02-14T04:37:25;99047.84;;;-1.07;100.00
21817;BME280;13247;47.504;7.382;2023-02-14T04:40:10;99040.91;;;-1.08;100.00
21817;BME280;13247;47.504;7.382;2023-02-14T04:42:54;99034.59;;;-1.16;100.00
21817;BME280;13247;47.504;7.382;2023-02-14T04:45:39;99039.66;;;-0.97;100.00
21817;BME280;13247;47.504;7.382;2023-02-14T04:48:24;99034.78;;;-0.70;100.00
21817;BME280;13247;47.504;7.382;2023-02-14T04:51:08;99034.94;;;-0.65;100.00
21817;BME280;13247;47.504;7.382;2023-02-14T04:53:53;99023.94;;;-0.61;100.00
21817;BME280;13247;47.504;7.382;2023-02-14T04:56:38;99025.03;;;-0.55;100.00
21817;BME280;13247;47.504;7.382;2023-02-14T04:59:23;99023.25;;;-0.57;100.00
21817;BME280;13247;47.504;7.382;2023-02-14T05:02:08;99028.50;;;-0.54;100.00
21817;BME280;13247;47.504;7.382;2023-02-14T05:04:52;99031.69;;;-0.39;100.00
21817;BME280;13247;47.504;7.382;2023-02-14T05:07:37;99031.09;;;-0.32;100.00
21817;BME280;13247;47.504;7.382;2023-02-14T05:10:22;99030.69;;;-0.43;100.00
21817;BME280;13247;47.504;7.382;2023-02-14T05:13:06;99021.94;;;-0.46;100.00
21817;BME280;13247;47.504;7.382;2023-02-14T05:15:51;99021.84;;;-0.49;100.00
21817;BME280;13247;47.504;7.382;2023-02-14T05:18:35;99026.00;;;-0.53;100.00
21817;BME280;13247;47.504;7.382;2023-02-14T05:21:20;99032.91;;;-0.52;100.00
21817;BME280;13247;47.504;7.382;2023-02-14T05:24:05;99029.25;;;-0.79;100.00
21817;BME280;13247;47.504;7.382;2023-02-14T05:26:50;99030.25;;;-0.96;100.00
21817;BME280;13247;47.504;7.382;2023-02-14T05:29:34;99036.53;;;-0.90;100.00
21817;BME280;13247;47.504;7.382;2023-02-14T05:32:19;99023.97;;;-0.82;100.00
21817;BME280;13247;47.504;7.382;2023-02-14T05:35:04;99032.19;;;-0.70;100.00
21817;BME280;13247;47.504;7.382;2023-02-14T05:37:49;99041.97;;;-0.61;100.00
21817;BME280;13247;47.504;7.382;2023-02-14T05:40:34;99040.34;;;-0.59;100.00
21817;BME280;13247;47.504;7.382;2023-02-14T05:43:19;99037.69;;;-0.61;100.00
21817;BME280;13247;47.504;7.382;2023-02-14T05:46:04;99040.25;;;-0.61;100.00
21817;BME280;13247;47.504;7.382;2023-02-14T05:48:49;99035.91;;;-0.63;100.00
21817;BME280;13247;47.504;7.382;2023-02-14T05:51:34;99042.03;;;-0.60;100.00
21817;BME280;13247;47.504;7.382;2023-02-14T05:54:18;99040.44;;;-0.56;100.00
21817;BME280;13247;47.504;7.382;2023-02-14T05:57:03;99048.19;;;-0.56;100.00
21817;BME280;13247;47.504;7.382;2023-02-14T05:59:47;99040.06;;;-0.65;100.00
21817;BME280;13247;47.504;7.382;2023-02-14T06:02:32;99041.16;;;-0.60;100.00
21817;BME280;13247;47.504;7.382;2023-02-14T06:05:16;99038.34;;;-0.66;100.00
21817;BME280;13247;47.504;7.382;2023-02-14T06:08:02;99053.63;;;-0.92;100.00
21817;BME280;13247;47.504;7.382;2023-02-14T06:10:46;99044.44;;;-0.85;100.00
21817;BME280;13247;47.504;7.382;2023-02-14T06:13:31;99047.22;;;-0.81;100.00
21817;BME280;13247;47.504;7.382;2023-02-14T06:16:15;99051.44;;;-0.83;100.00
21817;BME280;13247;47.504;7.382;2023-02-14T06:19:00;99047.06;;;-0.63;100.00
21817;BME280;13247;47.504;7.382;2023-02-14T06:21:44;99050.38;;;-0.65;100.00
21817;BME280;13247;47.504;7.382;2023-02-14T06:24:29;99042.91;;;-0.80;100.00
21817;BME280;13247;47.504;7.382;2023-02-14T06:27:14;99049.16;;;-0.75;100.00
21817;BME280;13247;47.504;7.382;2023-02-14T06:29:59;99057.16;;;-0.67;100.00
21817;BME280;13247;47.504;7.382;2023-02-14T06:32:44;99061.50;;;-0.66;100.00
21817;BME280;13247;47.504;7.382;2023-02-14T06:35:29;99062.47;;;-0.64;100.00
21817;BME280;13247;47.504;7.382;2023-02-14T06:38:13;99066.53;;;-0.69;100.00
21817;BME280;13247;47.504;7.382;2023-02-14T06:41:06;99069.75;;;-0.75;100.00
21817;BME280;13247;47.504;7.382;2023-02-14T06:43:53;99068.56;;;-0.83;100.00
21817;BME280;13247;47.504;7.382;2023-02-14T06:46:38;99078.38;;;-0.95;100.00
21817;BME280;13247;47.504;7.382;2023-02-14T06:49:22;99068.31;;;-0.89;100.00
21817;BME280;13247;47.504;7.382;2023-02-14T06:52:07;99075.91;;;-1.13;100.00
21817;BME280;13247;47.504;7.382;2023-02-14T06:54:52;99071.41;;;-0.98;100.00
21817;BME280;13247;47.504;7.382;2023-02-14T06:57:36;99073.19;;;-1.16;100.00
21817;BME280;13247;47.504;7.382;2023-02-14T07:00:22;99071.41;;;-0.98;100.00
21817;BME280;13247;47.504;7.382;2023-02-14T07:03:07;99074.59;;;-0.83;100.00
21817;BME280;13247;47.504;7.382;2023-02-14T07:05:53;99067.97;;;-0.55;100.00
21817;BME280;13247;47.504;7.382;2023-02-14T07:08:38;99070.91;;;-0.46;100.00
21817;BME280;13247;47.504;7.382;2023-02-14T07:11:22;99066.44;;;-0.50;100.00
21817;BME280;13247;47.504;7.382;2023-02-14T07:14:07;99072.09;;;-0.38;100.00
21817;BME280;13247;47.504;7.382;2023-02-14T07:16:52;99074.91;;;-0.32;100.00
21817;BME280;13247;47.504;7.382;2023-02-14T07:19:36;99070.00;;;-0.26;100.00
21817;BME280;13247;47.504;7.382;2023-02-14T07:22:21;99072.84;;;-0.19;100.00
21817;BME280;13247;47.504;7.382;2023-02-14T07:25:06;99075.84;;;-0.08;100.00
21817;BME280;13247;47.504;7.382;2023-02-14T07:27:51;99075.25;;;-0.01;100.00
21817;BME280;13247;47.504;7.382;2023-02-14T07:30:35;99068.97;;;0.15;100.00
21817;BME280;13247;47.504;7.382;2023-02-14T07:33:20;99067.88;;;0.08;100.00
21817;BME280;13247;47.504;7.382;2023-02-14T07:36:06;99069.56;;;0.08;100.00
21817;BME280;13247;47.504;7.382;2023-02-14T07:38:51;99064.09;;;0.22;100.00
21817;BME280;13247;47.504;7.382;2023-02-14T07:41:36;99065.25;;;0.30;100.00
21817;BME280;13247;47.504;7.382;2023-02-14T07:44:21;99063.19;;;0.44;100.00
21817;BME280;13247;47.504;7.382;2023-02-14T07:47:09;99064.38;;;0.53;100.00
21817;BME280;13247;47.504;7.382;2023-02-14T07:49:54;99061.78;;;0.53;100.00
21817;BME280;13247;47.504;7.382;2023-02-14T07:52:38;99066.00;;;0.28;100.00
21817;BME280;13247;47.504;7.382;2023-02-14T07:55:23;99066.22;;;0.57;100.00
21817;BME280;13247;47.504;7.382;2023-02-14T07:58:10;99066.34;;;0.60;100.00
21817;BME280;13247;47.504;7.382;2023-02-14T08:00:55;99063.38;;;0.73;100.00
21817;BME280;13247;47.504;7.382;2023-02-14T08:03:40;99065.44;;;0.84;100.00
21817;BME280;13247;47.504;7.382;2023-02-14T08:06:27;99057.69;;;0.84;100.00
21817;BME280;13247;47.504;7.382;2023-02-14T08:09:12;99058.31;;;1.02;100.00
21817;BME280;13247;47.504;7.382;2023-02-14T08:12:09;99050.25;;;1.18;100.00
21817;BME280;13247;47.504;7.382;2023-02-14T08:15:13;99046.75;;;1.42;100.00
21817;BME280;13247;47.504;7.382;2023-02-14T08:18:17;99049.81;;;1.57;100.00
21817;BME280;13247;47.504;7.382;2023-02-14T08:21:04;99050.78;;;1.61;100.00
21817;BME280;13247;47.504;7.382;2023-02-14T08:23:49;99046.59;;;1.65;100.00
21817;BME280;13247;47.504;7.382;2023-02-14T08:26:35;99041.66;;;1.72;100.00
21817;BME280;13247;47.504;7.382;2023-02-14T08:29:20;99049.00;;;1.87;100.00
21817;BME280;13247;47.504;7.382;2023-02-14T08:32:04;99041.41;;;1.93;100.00
21817;BME280;13247;47.504;7.382;2023-02-14T08:34:49;99034.56;;;1.95;100.00
21817;BME280;13247;47.504;7.382;2023-02-14T08:37:34;99031.78;;;1.87;100.00
21817;BME280;13247;47.504;7.382;2023-02-14T08:40:18;99033.09;;;2.03;100.00
21817;BME280;13247;47.504;7.382;2023-02-14T08:43:05;99026.44;;;2.11;100.00
21817;BME280;13247;47.504;7.382;2023-02-14T08:45:53;99036.25;;;2.22;100.00
21817;BME280;13247;47.504;7.382;2023-02-14T08:48:38;99037.25;;;2.26;100.00
21817;BME280;13247;47.504;7.382;2023-02-14T08:51:23;99039.63;;;2.50;100.00
21817;BME280;13247;47.504;7.382;2023-02-14T08:54:09;99032.84;;;2.53;100.00
21817;BME280;13247;47.504;7.382;2023-02-14T08:56:53;99037.28;;;2.59;100.00
21817;BME280;13247;47.504;7.382;2023-02-14T08:59:37;99035.91;;;2.71;100.00
21817;BME280;13247;47.504;7.382;2023-02-14T09:02:22;99035.44;;;2.86;100.00
21817;BME280;13247;47.504;7.382;2023-02-14T09:05:07;99033.91;;;2.94;100.00
21817;BME280;13247;47.504;7.382;2023-02-14T09:07:54;99040.34;;;3.08;100.00
21817;BME280;13247;47.504;7.382;2023-02-14T09:10:41;99030.78;;;3.07;100.00
21817;BME280;13247;47.504;7.382;2023-02-14T09:13:26;99031.28;;;3.25;100.00
21817;BME280;13247;47.504;7.382;2023-02-14T09:16:12;99038.19;;;3.26;100.00
21817;BME280;13247;47.504;7.382;2023-02-14T09:18:57;99028.09;;;3.38;100.00
21817;BME280;13247;47.504;7.382;2023-02-14T09:21:42;99033.28;;;3.38;100.00
21817;BME280;13247;47.504;7.382;2023-02-14T09:24:26;99031.00;;;3.50;100.00
21817;BME280;13247;47.504;7.382;2023-02-14T09:27:11;99031.13;;;3.55;100.00
21817;BME280;13247;47.504;7.382;2023-02-14T09:29:55;99030.53;;;3.68;100.00
21817;BME280;13247;47.504;7.382;2023-02-14T09:32:40;99028.94;;;3.73;100.00
21817;BME280;13247;47.504;7.382;2023-02-14T09:35:24;99022.31;;;3.85;100.00
21817;BME280;13247;47.504;7.382;2023-02-14T09:38:28;99025.09;;;3.94;100.00
21817;BME280;13247;47.504;7.382;2023-02-14T09:50:45;99009.44;;;4.32;100.00
21817;BME280;13247;47.504;7.382;2023-02-14T09:53:50;99017.94;;;4.25;100.00
21817;BME280;13247;47.504;7.382;2023-02-14T09:56:58;99012.44;;;4.51;100.00
21817;BME280;13247;47.504;7.382;2023-02-14T10:00:19;99015.97;;;4.56;100.00
21817;BME280;13247;47.504;7.382;2023-02-14T10:03:32;99016.94;;;4.60;100.00
21817;BME280;13247;47.504;7.382;2023-02-14T10:06:48;99009.44;;;4.75;100.00
21817;BME280;13247;47.504;7.382;2023-02-14T10:12:32;99008.06;;;4.95;100.00
21817;BME280;13247;47.504;7.382;2023-02-14T10:15:37;99006.44;;;5.02;100.00
21817;BME280;13247;47.504;7.382;2023-02-14T10:18:38;99009.22;;;5.14;100.00
21817;BME280;13247;47.504;7.382;2023-02-14T10:21:44;99004.75;;;5.04;100.00
21817;BME280;13247;47.504;7.382;2023-02-14T10:27:39;99000.84;;;5.30;100.00
21817;BME280;13247;47.504;7.382;2023-02-14T10:30:25;98994.78;;;5.32;100.00
21817;BME280;13247;47.504;7.382;2023-02-14T10:33:18;98991.75;;;5.59;100.00
21817;BME280;13247;47.504;7.382;2023-02-14T10:42:45;98978.28;;;5.87;100.00
21817;BME280;13247;47.504;7.382;2023-02-14T10:45:40;98974.22;;;6.06;100.00
21817;BME280;13247;47.504;7.382;2023-02-14T10:48:43;98972.66;;;6.20;100.00
21817;BME280;13247;47.504;7.382;2023-02-14T10:51:43;98968.59;;;6.45;100.00
21817;BME280;13247;47.504;7.382;2023-02-14T10:54:38;98963.44;;;6.49;100.00
21817;BME280;13247;47.504;7.382;2023-02-14T10:57:37;98955.84;;;6.70;100.00
21817;BME280;13247;47.504;7.382;2023-02-14T11:00:27;98951.63;;;6.80;100.00
21817;BME280;13247;47.504;7.382;2023-02-14T11:03:14;98957.03;;;7.05;100.00
21817;BME280;13247;47.504;7.382;2023-02-14T11:05:58;98949.28;;;7.11;100.00
21817;BME280;13247;47.504;7.382;2023-02-14T11:08:43;98944.16;;;7.27;100.00
21817;BME280;13247;47.504;7.382;2023-02-14T11:11:42;98942.50;;;7.39;100.00
21817;BME280;13247;47.504;7.382;2023-02-14T11:14:33;98938.19;;;7.41;100.00
21817;BME280;13247;47.504;7.382;2023-02-14T11:17:27;98929.56;;;7.51;100.00
21817;BME280;13247;47.504;7.382;2023-02-14T11:20:25;98928.69;;;7.51;100.00
21817;BME280;13247;47.504;7.382;2023-02-14T11:23:19;98920.97;;;7.73;100.00
21817;BME280;13247;47.504;7.382;2023-02-14T11:26:13;98920.13;;;7.77;100.00
21817;BME280;13247;47.504;7.382;2023-02-14T11:29:03;98907.97;;;7.82;100.00
21817;BME280;13247;47.504;7.382;2023-02-14T11:31:54;98904.53;;;7.91;100.00
21817;BME280;13247;47.504;7.382;2023-02-14T11:37:52;98890.69;;;8.16;100.00
21817;BME280;13247;47.504;7.382;2023-02-14T11:40:38;98893.38;;;8.25;100.00
21817;BME280;13247;47.504;7.382;2023-02-14T11:43:38;98891.63;;;8.36;100.00
21817;BME280;13247;47.504;7.382;2023-02-14T11:46:26;98886.44;;;8.47;100.00
21817;BME280;13247;47.504;7.382;2023-02-14T11:49:32;98882.09;;;8.47;100.00
21817;BME280;13247;47.504;7.382;2023-02-14T11:52:17;98877.75;;;8.54;100.00
21817;BME280;13247;47.504;7.382;2023-02-14T11:55:04;98876.88;;;8.73;100.00
21817;BME280;13247;47.504;7.382;2023-02-14T11:57:50;98873.41;;;8.91;100.00
21817;BME280;13247;47.504;7.382;2023-02-14T12:00:35;98869.94;;;9.04;100.00
21817;BME280;13247;47.504;7.382;2023-02-14T12:03:20;98858.56;;;9.11;100.00
21817;BME280;13247;47.504;7.382;2023-02-14T12:06:06;98854.19;;;9.31;100.00
21817;BME280;13247;47.504;7.382;2023-02-14T12:08:51;98855.06;;;9.27;100.00
21817;BME280;13247;47.504;7.382;2023-02-14T12:11:37;98842.78;;;9.47;100.00
21817;BME280;13247;47.504;7.382;2023-02-14T12:14:23;98852.41;;;9.43;100.00
21817;BME280;13247;47.504;7.382;2023-02-14T12:17:33;98840.16;;;9.56;100.00
21817;BME280;13247;47.504;7.382;2023-02-14T12:20:37;98839.22;;;9.71;100.00
21817;BME280;13247;47.504;7.382;2023-02-14T12:26:28;98832.91;;;10.08;100.00
21817;BME280;13247;47.504;7.382;2023-02-14T12:29:34;98823.25;;;10.28;100.00
21817;BME280;13247;47.504;7.382;2023-02-14T12:35:21;98821.38;;;10.42;94.05
21817;BME280;13247;47.504;7.382;2023-02-14T12:53:37;98789.44;;;10.98;94.37
21817;BME280;13247;47.504;7.382;2023-02-14T12:56:43;98796.41;;;10.99;89.57
21817;BME280;13247;47.504;7.382;2023-02-14T13:08:24;98765.34;;;11.40;92.04
21817;BME280;13247;47.504;7.382;2023-02-14T13:20:44;98745.91;;;12.19;81.22
21817;BME280;13247;47.504;7.382;2023-02-14T13:23:44;98748.34;;;12.32;80.14
21817;BME280;13247;47.504;7.382;2023-02-14T13:26:34;98747.53;;;12.29;81.32
21817;BME280;13247;47.504;7.382;2023-02-14T13:29:31;98740.13;;;12.52;79.30
21817;BME280;13247;47.504;7.382;2023-02-14T13:32:23;98735.59;;;12.60;76.95
21817;BME280;13247;47.504;7.382;2023-02-14T13:35:16;98733.75;;;12.65;79.41
21817;BME280;13247;47.504;7.382;2023-02-14T13:38:06;98740.03;;;12.58;81.11
21817;BME280;13247;47.504;7.382;2023-02-14T13:40:54;98722.94;;;12.80;79.51
21817;BME280;13247;47.504;7.382;2023-02-14T13:43:52;98732.03;;;12.64;79.96
21817;BME280;13247;47.504;7.382;2023-02-14T13:46:48;98725.41;;;12.89;79.58
21817;BME280;13247;47.504;7.382;2023-02-14T13:49:37;98722.19;;;13.22;79.19
21817;BME280;13247;47.504;7.382;2023-02-14T13:52:46;98718.53;;;13.29;76.42
21817;BME280;13247;47.504;7.382;2023-02-14T13:55:35;98721.34;;;12.73;79.31
21817;BME280;13247;47.504;7.382;2023-02-14T13:58:21;98713.25;;;13.29;76.66
21817;BME280;13247;47.504;7.382;2023-02-14T14:01:34;98714.59;;;13.50;76.26
21817;BME280;13247;47.504;7.382;2023-02-14T14:07:20;98715.69;;;13.80;69.08
21817;BME280;13247;47.504;7.382;2023-02-14T14:10:09;98711.44;;;13.74;73.36
21817;BME280;13247;47.504;7.382;2023-02-14T14:12:54;98712.41;;;13.69;70.52
21817;BME280;13247;47.504;7.382;2023-02-14T14:22:08;98703.72;;;13.65;74.02
21817;BME280;13247;47.504;7.382;2023-02-14T14:28:20;98686.00;;;14.10;68.01
21817;BME280;13247;47.504;7.382;2023-02-14T14:31:11;98692.88;;;14.15;66.36
21817;BME280;13247;47.504;7.382;2023-02-14T14:33:58;98687.00;;;14.41;65.71
21817;BME280;13247;47.504;7.382;2023-02-14T14:36:45;98682.72;;;14.37;66.36
21817;BME280;13247;47.504;7.382;2023-02-14T14:39:32;98678.69;;;14.21;66.72
21817;BME280;13247;47.504;7.382;2023-02-14T14:42:17;98685.63;;;14.25;66.12
21817;BME280;13247;47.504;7.382;2023-02-14T14:45:06;98689.25;;;14.21;66.19
21817;BME280;13247;47.504;7.382;2023-02-14T14:47:53;98678.22;;;14.04;64.63
21817;BME280;13247;47.504;7.382;2023-02-14T14:50:44;98686.41;;;13.93;67.22
21817;BME280;13247;47.504;7.382;2023-02-14T14:53:41;98680.78;;;14.07;65.25
21817;BME280;13247;47.504;7.382;2023-02-14T14:56:34;98675.84;;;13.92;62.00
21817;BME280;13247;47.504;7.382;2023-02-14T15:02:25;98682.38;;;14.14;63.35
21817;BME280;13247;47.504;7.382;2023-02-14T15:05:22;98681.69;;;14.06;62.36
21817;BME280;13247;47.504;7.382;2023-02-14T15:11:19;98690.97;;;14.22;60.66
21817;BME280;13247;47.504;7.382;2023-02-14T15:14:25;98686.81;;;14.12;62.11
21817;BME280;13247;47.504;7.382;2023-02-14T15:17:19;98684.28;;;14.07;60.15
21817;BME280;13247;47.504;7.382;2023-02-14T15:20:12;98685.81;;;14.17;61.26
21817;BME280;13247;47.504;7.382;2023-02-14T15:22:58;98683.31;;;14.11;60.71
21817;BME280;13247;47.504;7.382;2023-02-14T15:25:45;98684.19;;;13.74;64.52
21817;BME280;13247;47.504;7.382;2023-02-14T15:28:35;98684.38;;;13.65;68.27
21817;BME280;13247;47.504;7.382;2023-02-14T15:31:23;98687.75;;;13.31;73.16
21817;BME280;13247;47.504;7.382;2023-02-14T15:34:10;98687.16;;;13.17;74.54
21817;BME280;13247;47.504;7.382;2023-02-14T15:36:55;98678.78;;;13.40;70.76
21817;BME280;13247;47.504;7.382;2023-02-14T15:39:52;98682.53;;;12.83;76.19
21817;BME280;13247;47.504;7.382;2023-02-14T15:42:44;98677.44;;;12.75;76.95
21817;BME280;13247;47.504;7.382;2023-02-14T15:45:29;98676.81;;;13.08;73.01
21817;BME280;13247;47.504;7.382;2023-02-14T15:48:27;98668.31;;;12.45;80.46
21817;BME280;13247;47.504;7.382;2023-02-14T15:51:20;98678.03;;;11.87;91.04
21817;BME280;13247;47.504;7.382;2023-02-14T15:54:22;98672.19;;;12.25;88.86
21817;BME280;13247;47.504;7.382;2023-02-14T15:57:19;98669.09;;;11.99;91.58
21817;BME280;13247;47.504;7.382;2023-02-14T16:00:05;98671.75;;;11.96;90.77
21817;BME280;13247;47.504;7.382;2023-02-14T16:03:05;98675.63;;;11.73;93.19
21817;BME280;13247;47.504;7.382;2023-02-14T16:05:51;98676.63;;;11.63;94.95
21817;BME280;13247;47.504;7.382;2023-02-14T16:08:39;98667.84;;;11.63;94.54
21817;BME280;13247;47.504;7.382;2023-02-14T16:11:33;98673.34;;;11.46;95.09
21817;BME280;13247;47.504;7.382;2023-02-14T16:17:13;98669.78;;;10.79;100.00
21817;BME280;13247;47.504;7.382;2023-02-14T16:19:58;98673.19;;;10.88;98.63
21817;BME280;13247;47.504;7.382;2023-02-14T16:22:43;98677.75;;;10.70;99.89
21817;BME280;13247;47.504;7.382;2023-02-14T16:25:27;98674.22;;;10.71;99.10
21817;BME280;13247;47.504;7.382;2023-02-14T16:28:13;98676.97;;;10.60;99.21
21817;BME280;13247;47.504;7.382;2023-02-14T16:30:59;98674.63;;;10.28;100.00
21817;BME280;13247;47.504;7.382;2023-02-14T16:33:46;98674.78;;;10.12;100.00
21817;BME280;13247;47.504;7.382;2023-02-14T16:36:32;98675.72;;;10.00;100.00
21817;BME280;13247;47.504;7.382;2023-02-14T16:39:19;98672.25;;;9.98;100.00
21817;BME280;13247;47.504;7.382;2023-02-14T16:42:15;98681.06;;;9.88;100.00
21817;BME280;13247;47.504;7.382;2023-02-14T16:45:00;98690.88;;;9.53;100.00
21817;BME280;13247;47.504;7.382;2023-02-14T16:47:46;98694.50;;;9.31;100.00
21817;BME280;13247;47.504;7.382;2023-02-14T16:50:32;98692.91;;;8.91;100.00
21817;BME280;13247;47.504;7.382;2023-02-14T16:53:26;98693.88;;;8.46;100.00
21817;BME280;13247;47.504;7.382;2023-02-14T16:56:39;98700.84;;;8.35;100.00
21817;BME280;13247;47.504;7.382;2023-02-14T16:59:26;98698.22;;;8.21;100.00
21817;BME280;13247;47.504;7.382;2023-02-14T17:02:10;98704.28;;;7.99;100.00